aviador You're here:

KHYR Decoded Metar

HAYWARD in WI, USA
Report Time2017-11-18 13:33:00
UTC Time2017-11-18 13:54:54
Flight Rules mvfr MVFR
Wind350° at 05 kt
W.Decomp.*RWY 34: 4.9 kt HW 0.9 kt RCW
RWY 02: 4.3 kt HW 2.5 kt LCW
RWY 03: 3.8 kt HW 3.2 kt LCW
W.Rank350° ranks 23
Current wind is below 350° avg. (5.8)
Visibility9999 m
Phenomena:N/A
Clouds:Overcast 010 Hf
Expected CloudBase > 1,200 ft AGL from Temp-Dew spread
Ceiling1,000 ft
Temp01°C (ISA -12)
Dew Point-2°C (81% RH)
AAT-3.0°C
QNH1006 hPa
Density Alt121 ft
Elevation1,214 ft
Report Wrong Elevation
Raw Report
KHYR 181333Z AUTO 35005KT 10SM OVC010 01/M02 A2972 RMK AO2 CIG
008V012 T00061017=

Extra information for KHYR:More info

Metar Taf Metar & Taf Last 4 Metars F.Rules Stats Wind Profile Meteogram Temp Stats Airport Information Weather charts Add Link Nearby VenuesMetar ALERT Operation Metar Decoded Social comments

AIRNAV info for KHYR